sensor_id;sensor_type;location;lat;lon;timestamp;P1;durP1;ratioP1;P2;durP2;ratioP2
34832;SDS011;55941;50.800;4.342;2023-01-16T00:00:59;9.55;;;1.90;;
34832;SDS011;55941;50.800;4.342;2023-01-16T00:03:26;12.20;;;1.83;;
34832;SDS011;55941;50.800;4.342;2023-01-16T00:05:51;7.60;;;1.42;;
34832;SDS011;55941;50.800;4.342;2023-01-16T00:08:17;5.57;;;1.25;;
34832;SDS011;55941;50.800;4.342;2023-01-16T00:10:43;4.90;;;1.25;;
34832;SDS011;55941;50.800;4.342;2023-01-16T00:13:10;8.77;;;1.50;;
34832;SDS011;55941;50.800;4.342;2023-01-16T00:15:37;10.32;;;1.83;;
34832;SDS011;55941;50.800;4.342;2023-01-16T00:18:02;5.72;;;1.50;;
34832;SDS011;55941;50.800;4.342;2023-01-16T00:20:29;10.18;;;1.30;;
34832;SDS011;55941;50.800;4.342;2023-01-16T00:22:55;3.58;;;1.10;;
34832;SDS011;55941;50.800;4.342;2023-01-16T00:25:21;4.75;;;1.05;;
34832;SDS011;55941;50.800;4.342;2023-01-16T00:27:46;7.15;;;1.65;;
34832;SDS011;55941;50.800;4.342;2023-01-16T00:30:12;10.25;;;1.27;;
34832;SDS011;55941;50.800;4.342;2023-01-16T00:32:41;10.15;;;1.67;;
34832;SDS011;55941;50.800;4.342;2023-01-16T00:35:07;8.63;;;1.60;;
34832;SDS011;55941;50.800;4.342;2023-01-16T00:37:33;5.72;;;0.90;;
34832;SDS011;55941;50.800;4.342;2023-01-16T00:39:58;11.02;;;1.55;;
34832;SDS011;55941;50.800;4.342;2023-01-16T00:42:24;12.90;;;1.30;;
34832;SDS011;55941;50.800;4.342;2023-01-16T00:44:50;7.15;;;1.50;;
34832;SDS011;55941;50.800;4.342;2023-01-16T00:47:15;4.00;;;1.00;;
34832;SDS011;55941;50.800;4.342;2023-01-16T00:49:41;8.85;;;1.60;;
34832;SDS011;55941;50.800;4.342;2023-01-16T00:52:08;8.85;;;2.05;;
34832;SDS011;55941;50.800;4.342;2023-01-16T00:54:33;6.32;;;1.70;;
34832;SDS011;55941;50.800;4.342;2023-01-16T00:56:59;12.48;;;2.03;;
34832;SDS011;55941;50.800;4.342;2023-01-16T00:59:25;6.97;;;1.55;;
34832;SDS011;55941;50.800;4.342;2023-01-16T01:01:50;7.63;;;1.90;;
34832;SDS011;55941;50.800;4.342;2023-01-16T01:04:16;4.65;;;1.52;;
34832;SDS011;55941;50.800;4.342;2023-01-16T01:06:42;6.53;;;1.75;;
34832;SDS011;55941;50.800;4.342;2023-01-16T01:09:07;7.97;;;1.38;;
34832;SDS011;55941;50.800;4.342;2023-01-16T01:11:33;9.57;;;1.73;;
34832;SDS011;55941;50.800;4.342;2023-01-16T01:13:59;8.57;;;1.50;;
34832;SDS011;55941;50.800;4.342;2023-01-16T01:16:24;13.68;;;2.33;;
34832;SDS011;55941;50.800;4.342;2023-01-16T01:18:50;11.18;;;2.00;;
34832;SDS011;55941;50.800;4.342;2023-01-16T01:21:16;9.30;;;2.20;;
34832;SDS011;55941;50.800;4.342;2023-01-16T01:23:42;13.88;;;2.78;;
34832;SDS011;55941;50.800;4.342;2023-01-16T01:26:12;11.48;;;1.75;;
34832;SDS011;55941;50.800;4.342;2023-01-16T01:28:40;8.43;;;1.48;;
34832;SDS011;55941;50.800;4.342;2023-01-16T01:31:07;14.57;;;2.08;;
34832;SDS011;55941;50.800;4.342;2023-01-16T01:33:35;11.10;;;2.00;;
34832;SDS011;55941;50.800;4.342;2023-01-16T01:36:01;10.38;;;2.00;;
34832;SDS011;55941;50.800;4.342;2023-01-16T01:38:27;20.25;;;2.78;;
34832;SDS011;55941;50.800;4.342;2023-01-16T01:40:53;10.85;;;2.05;;
34832;SDS011;55941;50.800;4.342;2023-01-16T01:43:19;13.85;;;2.65;;
34832;SDS011;55941;50.800;4.342;2023-01-16T01:45:49;17.65;;;2.65;;
34832;SDS011;55941;50.800;4.342;2023-01-16T01:48:39;16.67;;;2.63;;
34832;SDS011;55941;50.800;4.342;2023-01-16T01:51:09;18.58;;;2.35;;
34832;SDS011;55941;50.800;4.342;2023-01-16T01:53:41;13.30;;;2.45;;
34832;SDS011;55941;50.800;4.342;2023-01-16T01:58:49;16.80;;;2.70;;
34832;SDS011;55941;50.800;4.342;2023-01-16T02:01:19;16.73;;;3.05;;
34832;SDS011;55941;50.800;4.342;2023-01-16T02:03:46;10.85;;;2.13;;
34832;SDS011;55941;50.800;4.342;2023-01-16T02:06:18;14.45;;;2.33;;
34832;SDS011;55941;50.800;4.342;2023-01-16T02:08:48;13.38;;;2.30;;
34832;SDS011;55941;50.800;4.342;2023-01-16T02:11:22;16.00;;;2.35;;
34832;SDS011;55941;50.800;4.342;2023-01-16T02:13:56;14.40;;;2.15;;
34832;SDS011;55941;50.800;4.342;2023-01-16T02:16:41;20.17;;;2.70;;
34832;SDS011;55941;50.800;4.342;2023-01-16T02:20:10;18.02;;;2.03;;
34832;SDS011;55941;50.800;4.342;2023-01-16T02:34:38;15.85;;;2.00;;
34832;SDS011;55941;50.800;4.342;2023-01-16T02:42:27;11.73;;;2.20;;
34832;SDS011;55941;50.800;4.342;2023-01-16T02:47:47;18.90;;;2.08;;
34832;SDS011;55941;50.800;4.342;2023-01-16T02:50:19;12.55;;;2.28;;
34832;SDS011;55941;50.800;4.342;2023-01-16T02:55:39;18.63;;;2.08;;
34832;SDS011;55941;50.800;4.342;2023-01-16T02:58:22;14.52;;;2.50;;
34832;SDS011;55941;50.800;4.342;2023-01-16T03:00:51;11.18;;;2.17;;
34832;SDS011;55941;50.800;4.342;2023-01-16T03:05:56;15.50;;;2.72;;
34832;SDS011;55941;50.800;4.342;2023-01-16T03:08:34;13.38;;;1.83;;
34832;SDS011;55941;50.800;4.342;2023-01-16T03:11:14;11.00;;;1.42;;
34832;SDS011;55941;50.800;4.342;2023-01-16T03:13:50;15.55;;;2.15;;
34832;SDS011;55941;50.800;4.342;2023-01-16T03:16:28;11.30;;;1.90;;
34832;SDS011;55941;50.800;4.342;2023-01-16T03:24:42;9.07;;;1.65;;
34832;SDS011;55941;50.800;4.342;2023-01-16T03:29:44;9.35;;;1.65;;
34832;SDS011;55941;50.800;4.342;2023-01-16T03:32:32;8.35;;;2.08;;
34832;SDS011;55941;50.800;4.342;2023-01-16T03:37:40;15.55;;;1.92;;
34832;SDS011;55941;50.800;4.342;2023-01-16T03:40:12;16.50;;;1.67;;
34832;SDS011;55941;50.800;4.342;2023-01-16T03:45:55;11.45;;;1.52;;
34832;SDS011;55941;50.800;4.342;2023-01-16T03:48:34;15.10;;;2.53;;
34832;SDS011;55941;50.800;4.342;2023-01-16T03:51:05;8.80;;;1.67;;
34832;SDS011;55941;50.800;4.342;2023-01-16T03:53:35;11.43;;;1.80;;
34832;SDS011;55941;50.800;4.342;2023-01-16T03:58:38;17.27;;;2.42;;
34832;SDS011;55941;50.800;4.342;2023-01-16T04:04:00;10.68;;;1.92;;
34832;SDS011;55941;50.800;4.342;2023-01-16T04:06:34;8.88;;;1.50;;
34832;SDS011;55941;50.800;4.342;2023-01-16T04:09:36;14.82;;;2.38;;
34832;SDS011;55941;50.800;4.342;2023-01-16T04:12:03;17.02;;;2.25;;
34832;SDS011;55941;50.800;4.342;2023-01-16T04:14:31;13.40;;;1.58;;
34832;SDS011;55941;50.800;4.342;2023-01-16T04:16:58;10.95;;;1.52;;
34832;SDS011;55941;50.800;4.342;2023-01-16T04:19:24;14.90;;;1.58;;
34832;SDS011;55941;50.800;4.342;2023-01-16T04:21:51;11.65;;;2.05;;
34832;SDS011;55941;50.800;4.342;2023-01-16T04:24:17;15.02;;;2.05;;
34832;SDS011;55941;50.800;4.342;2023-01-16T04:26:43;13.52;;;1.80;;
34832;SDS011;55941;50.800;4.342;2023-01-16T04:29:09;11.70;;;1.60;;
34832;SDS011;55941;50.800;4.342;2023-01-16T04:31:35;8.77;;;1.58;;
34832;SDS011;55941;50.800;4.342;2023-01-16T04:34:01;9.27;;;1.60;;
34832;SDS011;55941;50.800;4.342;2023-01-16T04:36:26;10.75;;;2.10;;
34832;SDS011;55941;50.800;4.342;2023-01-16T04:38:52;10.45;;;1.83;;
34832;SDS011;55941;50.800;4.342;2023-01-16T04:41:18;16.08;;;1.92;;
34832;SDS011;55941;50.800;4.342;2023-01-16T04:44:01;5.85;;;1.17;;
34832;SDS011;55941;50.800;4.342;2023-01-16T04:46:31;6.20;;;1.17;;
34832;SDS011;55941;50.800;4.342;2023-01-16T04:48:57;10.57;;;1.33;;
34832;SDS011;55941;50.800;4.342;2023-01-16T04:51:23;10.00;;;1.42;;
34832;SDS011;55941;50.800;4.342;2023-01-16T04:53:49;9.65;;;1.48;;
34832;SDS011;55941;50.800;4.342;2023-01-16T04:56:14;14.05;;;1.58;;
34832;SDS011;55941;50.800;4.342;2023-01-16T04:58:40;10.20;;;1.58;;
34832;SDS011;55941;50.800;4.342;2023-01-16T05:01:06;13.00;;;1.60;;
34832;SDS011;55941;50.800;4.342;2023-01-16T05:03:31;11.52;;;1.27;;
34832;SDS011;55941;50.800;4.342;2023-01-16T05:05:57;9.13;;;1.65;;
34832;SDS011;55941;50.800;4.342;2023-01-16T05:08:23;11.70;;;1.70;;
34832;SDS011;55941;50.800;4.342;2023-01-16T05:10:52;14.27;;;1.70;;
34832;SDS011;55941;50.800;4.342;2023-01-16T05:13:19;10.15;;;1.73;;
34832;SDS011;55941;50.800;4.342;2023-01-16T05:15:45;17.05;;;1.88;;
34832;SDS011;55941;50.800;4.342;2023-01-16T05:18:11;6.43;;;1.25;;
34832;SDS011;55941;50.800;4.342;2023-01-16T05:20:37;9.32;;;1.40;;
34832;SDS011;55941;50.800;4.342;2023-01-16T05:23:03;8.25;;;1.60;;
34832;SDS011;55941;50.800;4.342;2023-01-16T05:25:29;8.27;;;1.48;;
34832;SDS011;55941;50.800;4.342;2023-01-16T05:27:55;10.73;;;1.65;;
34832;SDS011;55941;50.800;4.342;2023-01-16T05:30:21;13.25;;;1.65;;
34832;SDS011;55941;50.800;4.342;2023-01-16T05:32:47;8.68;;;0.98;;
34832;SDS011;55941;50.800;4.342;2023-01-16T05:35:12;9.60;;;1.33;;
34832;SDS011;55941;50.800;4.342;2023-01-16T05:37:39;9.30;;;1.70;;
34832;SDS011;55941;50.800;4.342;2023-01-16T05:40:05;5.60;;;1.35;;
34832;SDS011;55941;50.800;4.342;2023-01-16T05:42:31;7.70;;;1.30;;
34832;SDS011;55941;50.800;4.342;2023-01-16T05:44:56;7.68;;;0.88;;
34832;SDS011;55941;50.800;4.342;2023-01-16T05:47:22;9.25;;;1.25;;
34832;SDS011;55941;50.800;4.342;2023-01-16T05:49:48;4.65;;;0.80;;
34832;SDS011;55941;50.800;4.342;2023-01-16T05:52:14;5.40;;;1.08;;
34832;SDS011;55941;50.800;4.342;2023-01-16T05:54:40;4.80;;;0.70;;
34832;SDS011;55941;50.800;4.342;2023-01-16T05:57:06;5.10;;;0.73;;
34832;SDS011;55941;50.800;4.342;2023-01-16T05:59:31;3.85;;;0.63;;
34832;SDS011;55941;50.800;4.342;2023-01-16T06:01:57;2.05;;;0.50;;
34832;SDS011;55941;50.800;4.342;2023-01-16T06:04:23;3.72;;;0.57;;
34832;SDS011;55941;50.800;4.342;2023-01-16T06:06:49;2.97;;;0.57;;
34832;SDS011;55941;50.800;4.342;2023-01-16T06:09:14;2.03;;;0.30;;
34832;SDS011;55941;50.800;4.342;2023-01-16T06:11:40;4.18;;;0.70;;
34832;SDS011;55941;50.800;4.342;2023-01-16T06:14:06;1.85;;;0.40;;
34832;SDS011;55941;50.800;4.342;2023-01-16T06:16:32;5.05;;;0.70;;
34832;SDS011;55941;50.800;4.342;2023-01-16T06:18:59;3.30;;;0.45;;
34832;SDS011;55941;50.800;4.342;2023-01-16T06:21:25;3.05;;;0.50;;
34832;SDS011;55941;50.800;4.342;2023-01-16T06:23:51;3.25;;;0.63;;
34832;SDS011;55941;50.800;4.342;2023-01-16T06:26:17;3.28;;;0.90;;
34832;SDS011;55941;50.800;4.342;2023-01-16T06:28:44;2.53;;;0.60;;
34832;SDS011;55941;50.800;4.342;2023-01-16T06:31:10;3.75;;;0.68;;
34832;SDS011;55941;50.800;4.342;2023-01-16T06:33:36;3.63;;;0.63;;
34832;SDS011;55941;50.800;4.342;2023-01-16T06:36:02;2.50;;;0.50;;
34832;SDS011;55941;50.800;4.342;2023-01-16T06:38:28;5.60;;;0.63;;
34832;SDS011;55941;50.800;4.342;2023-01-16T06:40:54;2.42;;;0.40;;
34832;SDS011;55941;50.800;4.342;2023-01-16T06:43:23;3.05;;;0.40;;
34832;SDS011;55941;50.800;4.342;2023-01-16T06:45:52;8.02;;;0.60;;
34832;SDS011;55941;50.800;4.342;2023-01-16T06:48:18;3.10;;;0.50;;
34832;SDS011;55941;50.800;4.342;2023-01-16T06:50:44;1.08;;;0.50;;
34832;SDS011;55941;50.800;4.342;2023-01-16T06:53:10;2.63;;;0.52;;
34832;SDS011;55941;50.800;4.342;2023-01-16T06:55:36;1.85;;;0.43;;
34832;SDS011;55941;50.800;4.342;2023-01-16T06:58:02;2.28;;;0.88;;
34832;SDS011;55941;50.800;4.342;2023-01-16T07:00:28;1.45;;;0.30;;
34832;SDS011;55941;50.800;4.342;2023-01-16T07:02:54;1.75;;;0.40;;
34832;SDS011;55941;50.800;4.342;2023-01-16T07:05:21;1.55;;;0.43;;
34832;SDS011;55941;50.800;4.342;2023-01-16T07:07:48;0.32;;;0.28;;
34832;SDS011;55941;50.800;4.342;2023-01-16T07:10:14;1.08;;;0.50;;
34832;SDS011;55941;50.800;4.342;2023-01-16T07:12:40;5.65;;;1.02;;
34832;SDS011;55941;50.800;4.342;2023-01-16T07:15:06;1.60;;;0.40;;
34832;SDS011;55941;50.800;4.342;2023-01-16T07:17:51;1.75;;;0.43;;
34832;SDS011;55941;50.800;4.342;2023-01-16T07:20:36;4.65;;;0.22;;
34832;SDS011;55941;50.800;4.342;2023-01-16T07:23:30;2.75;;;0.20;;
34832;SDS011;55941;50.800;4.342;2023-01-16T07:25:59;0.77;;;0.30;;
34832;SDS011;55941;50.800;4.342;2023-01-16T07:28:27;0.98;;;0.40;;
34832;SDS011;55941;50.800;4.342;2023-01-16T07:30:53;1.73;;;0.30;;
34832;SDS011;55941;50.800;4.342;2023-01-16T07:33:20;0.20;;;0.20;;
34832;SDS011;55941;50.800;4.342;2023-01-16T07:35:46;0.32;;;0.30;;
34832;SDS011;55941;50.800;4.342;2023-01-16T07:38:12;0.43;;;0.20;;
34832;SDS011;55941;50.800;4.342;2023-01-16T07:40:37;0.30;;;0.25;;
34832;SDS011;55941;50.800;4.342;2023-01-16T07:43:04;0.82;;;0.32;;
34832;SDS011;55941;50.800;4.342;2023-01-16T07:45:30;0.60;;;0.35;;
34832;SDS011;55941;50.800;4.342;2023-01-16T07:47:55;2.38;;;0.35;;
34832;SDS011;55941;50.800;4.342;2023-01-16T07:50:21;2.60;;;0.30;;
34832;SDS011;55941;50.800;4.342;2023-01-16T07:52:47;0.90;;;0.30;;
34832;SDS011;55941;50.800;4.342;2023-01-16T07:55:13;0.90;;;0.38;;
34832;SDS011;55941;50.800;4.342;2023-01-16T07:57:39;0.75;;;0.30;;
34832;SDS011;55941;50.800;4.342;2023-01-16T08:00:05;0.30;;;0.20;;
34832;SDS011;55941;50.800;4.342;2023-01-16T08:02:33;0.90;;;0.40;;
34832;SDS011;55941;50.800;4.342;2023-01-16T08:04:59;0.22;;;0.22;;
34832;SDS011;55941;50.800;4.342;2023-01-16T08:07:25;1.80;;;0.50;;
34832;SDS011;55941;50.800;4.342;2023-01-16T08:09:50;4.22;;;0.50;;
34832;SDS011;55941;50.800;4.342;2023-01-16T08:12:16;2.03;;;0.60;;
34832;SDS011;55941;50.800;4.342;2023-01-16T08:14:42;0.52;;;0.52;;
34832;SDS011;55941;50.800;4.342;2023-01-16T08:17:08;5.65;;;1.90;;
34832;SDS011;55941;50.800;4.342;2023-01-16T08:19:34;1.77;;;0.60;;
34832;SDS011;55941;50.800;4.342;2023-01-16T08:22:00;1.48;;;0.73;;
34832;SDS011;55941;50.800;4.342;2023-01-16T08:24:29;1.02;;;0.50;;
34832;SDS011;55941;50.800;4.342;2023-01-16T08:26:55;3.15;;;0.85;;
34832;SDS011;55941;50.800;4.342;2023-01-16T08:29:21;3.65;;;0.63;;
34832;SDS011;55941;50.800;4.342;2023-01-16T08:31:48;4.78;;;0.70;;
34832;SDS011;55941;50.800;4.342;2023-01-16T08:34:14;1.52;;;0.50;;
34832;SDS011;55941;50.800;4.342;2023-01-16T08:36:41;1.35;;;0.40;;
34832;SDS011;55941;50.800;4.342;2023-01-16T08:39:08;1.83;;;0.50;;
34832;SDS011;55941;50.800;4.342;2023-01-16T08:41:36;3.97;;;0.43;;
34832;SDS011;55941;50.800;4.342;2023-01-16T08:44:21;11.93;;;0.90;;
34832;SDS011;55941;50.800;4.342;2023-01-16T08:47:10;81.22;;;6.05;;
34832;SDS011;55941;50.800;4.342;2023-01-16T08:49:57;15.40;;;1.80;;
34832;SDS011;55941;50.800;4.342;2023-01-16T08:52:42;22.17;;;1.95;;
34832;SDS011;55941;50.800;4.342;2023-01-16T08:55:10;8.85;;;1.23;;
34832;SDS011;55941;50.800;4.342;2023-01-16T08:57:42;63.45;;;3.55;;
34832;SDS011;55941;50.800;4.342;2023-01-16T09:00:08;11.57;;;1.00;;
34832;SDS011;55941;50.800;4.342;2023-01-16T09:02:34;26.63;;;2.05;;
34832;SDS011;55941;50.800;4.342;2023-01-16T09:05:02;3.85;;;0.80;;
34832;SDS011;55941;50.800;4.342;2023-01-16T09:07:28;4.55;;;0.60;;
34832;SDS011;55941;50.800;4.342;2023-01-16T09:09:54;4.45;;;0.85;;
34832;SDS011;55941;50.800;4.342;2023-01-16T09:12:22;6.80;;;1.02;;
34832;SDS011;55941;50.800;4.342;2023-01-16T09:15:06;5.22;;;1.50;;
34832;SDS011;55941;50.800;4.342;2023-01-16T09:17:32;9.90;;;1.63;;
34832;SDS011;55941;50.800;4.342;2023-01-16T09:19:58;2.75;;;1.00;;
34832;SDS011;55941;50.800;4.342;2023-01-16T09:22:25;12.43;;;1.55;;
34832;SDS011;55941;50.800;4.342;2023-01-16T09:24:53;11.98;;;3.30;;
34832;SDS011;55941;50.800;4.342;2023-01-16T09:27:20;2.85;;;1.13;;
34832;SDS011;55941;50.800;4.342;2023-01-16T09:29:48;8.07;;;1.00;;
34832;SDS011;55941;50.800;4.342;2023-01-16T09:32:13;7.20;;;1.45;;
34832;SDS011;55941;50.800;4.342;2023-01-16T09:34:41;4.43;;;0.90;;
34832;SDS011;55941;50.800;4.342;2023-01-16T09:37:07;3.03;;;1.15;;
34832;SDS011;55941;50.800;4.342;2023-01-16T09:39:35;1.13;;;0.80;;
34832;SDS011;55941;50.800;4.342;2023-01-16T09:42:05;34.40;;;2.25;;
34832;SDS011;55941;50.800;4.342;2023-01-16T09:44:59;2.72;;;0.80;;
34832;SDS011;55941;50.800;4.342;2023-01-16T09:47:31;5.75;;;1.20;;
34832;SDS011;55941;50.800;4.342;2023-01-16T09:50:20;5.13;;;0.93;;
34832;SDS011;55941;50.800;4.342;2023-01-16T09:53:03;3.88;;;0.70;;
34832;SDS011;55941;50.800;4.342;2023-01-16T09:55:50;4.10;;;0.68;;
34832;SDS011;55941;50.800;4.342;2023-01-16T09:58:40;6.75;;;0.63;;
34832;SDS011;55941;50.800;4.342;2023-01-16T10:01:14;5.63;;;0.82;;
34832;SDS011;55941;50.800;4.342;2023-01-16T10:03:51;1.05;;;0.40;;
34832;SDS011;55941;50.800;4.342;2023-01-16T10:06:59;1.25;;;0.52;;
34832;SDS011;55941;50.800;4.342;2023-01-16T10:09:26;3.22;;;0.60;;
34832;SDS011;55941;50.800;4.342;2023-01-16T10:12:13;2.10;;;0.50;;
34832;SDS011;55941;50.800;4.342;2023-01-16T10:17:24;1.42;;;0.40;;
34832;SDS011;55941;50.800;4.342;2023-01-16T10:20:11;2.28;;;0.75;;
34832;SDS011;55941;50.800;4.342;2023-01-16T10:23:11;1.30;;;0.75;;
34832;SDS011;55941;50.800;4.342;2023-01-16T10:25:49;2.88;;;0.60;;
34832;SDS011;55941;50.800;4.342;2023-01-16T10:28:52;1.35;;;0.60;;
34832;SDS011;55941;50.800;4.342;2023-01-16T10:31:42;0.93;;;0.35;;
34832;SDS011;55941;50.800;4.342;2023-01-16T10:34:31;1.77;;;0.40;;
34832;SDS011;55941;50.800;4.342;2023-01-16T10:37:04;1.55;;;0.60;;
34832;SDS011;55941;50.800;4.342;2023-01-16T10:39:32;1.50;;;0.50;;
34832;SDS011;55941;50.800;4.342;2023-01-16T10:42:08;2.05;;;0.63;;
34832;SDS011;55941;50.800;4.342;2023-01-16T10:45:08;2.67;;;0.70;;
34832;SDS011;55941;50.800;4.342;2023-01-16T10:48:02;2.75;;;0.75;;
34832;SDS011;55941;50.800;4.342;2023-01-16T10:50:47;6.07;;;0.85;;
34832;SDS011;55941;50.800;4.342;2023-01-16T10:53:13;1.17;;;0.50;;
34832;SDS011;55941;50.800;4.342;2023-01-16T10:55:40;3.92;;;0.60;;
34832;SDS011;55941;50.800;4.342;2023-01-16T11:00:39;6.53;;;0.80;;
34832;SDS011;55941;50.800;4.342;2023-01-16T11:06:20;1.73;;;0.88;;
34832;SDS011;55941;50.800;4.342;2023-01-16T11:08:54;2.38;;;0.80;;
34832;SDS011;55941;50.800;4.342;2023-01-16T11:11:28;4.20;;;0.73;;
34832;SDS011;55941;50.800;4.342;2023-01-16T11:20:16;3.45;;;1.00;;
34832;SDS011;55941;50.800;4.342;2023-01-16T11:22:58;1.27;;;0.73;;
34832;SDS011;55941;50.800;4.342;2023-01-16T11:25:30;1.35;;;0.60;;
34832;SDS011;55941;50.800;4.342;2023-01-16T11:27:57;3.10;;;1.13;;
34832;SDS011;55941;50.800;4.342;2023-01-16T11:30:30;7.50;;;1.20;;
34832;SDS011;55941;50.800;4.342;2023-01-16T11:32:58;2.35;;;1.17;;
34832;SDS011;55941;50.800;4.342;2023-01-16T11:35:32;4.40;;;1.60;;
34832;SDS011;55941;50.800;4.342;2023-01-16T11:38:00;6.47;;;1.20;;
34832;SDS011;55941;50.800;4.342;2023-01-16T11:40:37;3.60;;;0.98;;
34832;SDS011;55941;50.800;4.342;2023-01-16T11:43:17;5.57;;;1.00;;
34832;SDS011;55941;50.800;4.342;2023-01-16T11:46:07;2.25;;;0.82;;
34832;SDS011;55941;50.800;4.342;2023-01-16T11:49:15;7.10;;;1.15;;
34832;SDS011;55941;50.800;4.342;2023-01-16T11:51:49;3.97;;;0.95;;
34832;SDS011;55941;50.800;4.342;2023-01-16T11:54:19;6.30;;;1.00;;
34832;SDS011;55941;50.800;4.342;2023-01-16T11:57:01;2.38;;;0.82;;
34832;SDS011;55941;50.800;4.342;2023-01-16T12:16:47;8.20;;;2.08;;
34832;SDS011;55941;50.800;4.342;2023-01-16T12:19:23;2.72;;;1.70;;
34832;SDS011;55941;50.800;4.342;2023-01-16T12:22:05;3.17;;;2.05;;
34832;SDS011;55941;50.800;4.342;2023-01-16T12:24:54;4.55;;;1.63;;
34832;SDS011;55941;50.800;4.342;2023-01-16T12:30:30;1.80;;;0.60;;
34832;SDS011;55941;50.800;4.342;2023-01-16T12:36:03;7.03;;;1.48;;
34832;SDS011;55941;50.800;4.342;2023-01-16T12:38:59;40.60;;;4.00;;
34832;SDS011;55941;50.800;4.342;2023-01-16T12:41:28;12.00;;;0.70;;
34832;SDS011;55941;50.800;4.342;2023-01-16T12:44:57;60.50;;;5.28;;
34832;SDS011;55941;50.800;4.342;2023-01-16T12:50:14;14.68;;;1.77;;
34832;SDS011;55941;50.800;4.342;2023-01-16T12:52:58;1.65;;;0.85;;
34832;SDS011;55941;50.800;4.342;2023-01-16T12:58:37;37.78;;;6.68;;
34832;SDS011;55941;50.800;4.342;2023-01-16T13:01:33;33.97;;;3.00;;
34832;SDS011;55941;50.800;4.342;2023-01-16T13:04:12;68.55;;;6.38;;
34832;SDS011;55941;50.800;4.342;2023-01-16T13:09:17;53.08;;;5.63;;
34832;SDS011;55941;50.800;4.342;2023-01-16T13:12:05;37.08;;;4.43;;
34832;SDS011;55941;50.800;4.342;2023-01-16T13:14:58;29.58;;;3.47;;
34832;SDS011;55941;50.800;4.342;2023-01-16T13:17:36;1.90;;;1.15;;
34832;SDS011;55941;50.800;4.342;2023-01-16T13:20:09;9.48;;;1.52;;
34832;SDS011;55941;50.800;4.342;2023-01-16T13:28:05;68.40;;;12.18;;
34832;SDS011;55941;50.800;4.342;2023-01-16T13:30:54;95.45;;;8.25;;
34832;SDS011;55941;50.800;4.342;2023-01-16T13:33:27;120.45;;;9.15;;
34832;SDS011;55941;50.800;4.342;2023-01-16T13:36:04;119.70;;;7.25;;
34832;SDS011;55941;50.800;4.342;2023-01-16T13:38:43;5.70;;;1.85;;
34832;SDS011;55941;50.800;4.342;2023-01-16T13:41:25;25.35;;;1.95;;
34832;SDS011;55941;50.800;4.342;2023-01-16T13:44:29;4.97;;;1.27;;
34832;SDS011;55941;50.800;4.342;2023-01-16T13:47:13;4.47;;;1.20;;
34832;SDS011;55941;50.800;4.342;2023-01-16T13:49:47;31.33;;;2.72;;
34832;SDS011;55941;50.800;4.342;2023-01-16T13:52:35;82.18;;;6.03;;
34832;SDS011;55941;50.800;4.342;2023-01-16T13:55:01;2.25;;;0.93;;
34832;SDS011;55941;50.800;4.342;2023-01-16T13:57:31;42.40;;;2.65;;
34832;SDS011;55941;50.800;4.342;2023-01-16T13:59:59;8.30;;;1.85;;
34832;SDS011;55941;50.800;4.342;2023-01-16T14:02:38;14.60;;;1.70;;
34832;SDS011;55941;50.800;4.342;2023-01-16T14:10:39;4.90;;;1.90;;
34832;SDS011;55941;50.800;4.342;2023-01-16T14:13:21;5.43;;;1.90;;
34832;SDS011;55941;50.800;4.342;2023-01-16T14:21:24;7.85;;;1.90;;
34832;SDS011;55941;50.800;4.342;2023-01-16T14:24:40;3.45;;;1.55;;
34832;SDS011;55941;50.800;4.342;2023-01-16T14:27:14;4.32;;;1.70;;
34832;SDS011;55941;50.800;4.342;2023-01-16T14:32:29;4.95;;;1.60;;
34832;SDS011;55941;50.800;4.342;2023-01-16T14:35:30;4.00;;;1.80;;
34832;SDS011;55941;50.800;4.342;2023-01-16T14:38:02;1.77;;;1.10;;
34832;SDS011;55941;50.800;4.342;2023-01-16T14:40:33;5.18;;;2.55;;
34832;SDS011;55941;50.800;4.342;2023-01-16T14:53:12;2.42;;;1.00;;
34832;SDS011;55941;50.800;4.342;2023-01-16T14:55:55;6.05;;;1.75;;
34832;SDS011;55941;50.800;4.342;2023-01-16T14:58:35;3.10;;;1.80;;
34832;SDS011;55941;50.800;4.342;2023-01-16T15:01:34;4.47;;;1.42;;
34832;SDS011;55941;50.800;4.342;2023-01-16T15:04:26;2.85;;;1.95;;
34832;SDS011;55941;50.800;4.342;2023-01-16T15:06:57;2.08;;;1.38;;
34832;SDS011;55941;50.800;4.342;2023-01-16T15:09:28;2.53;;;1.50;;
34832;SDS011;55941;50.800;4.342;2023-01-16T15:12:01;3.42;;;1.60;;
34832;SDS011;55941;50.800;4.342;2023-01-16T15:14:36;2.15;;;1.42;;
34832;SDS011;55941;50.800;4.342;2023-01-16T15:17:04;5.78;;;1.77;;
34832;SDS011;55941;50.800;4.342;2023-01-16T15:22:43;3.83;;;1.48;;
34832;SDS011;55941;50.800;4.342;2023-01-16T15:25:14;2.80;;;1.35;;
34832;SDS011;55941;50.800;4.342;2023-01-16T15:27:43;0.95;;;0.85;;
34832;SDS011;55941;50.800;4.342;2023-01-16T15:30:19;2.85;;;0.90;;
34832;SDS011;55941;50.800;4.342;2023-01-16T15:32:57;1.30;;;0.47;;
34832;SDS011;55941;50.800;4.342;2023-01-16T15:35:44;1.02;;;0.80;;
34832;SDS011;55941;50.800;4.342;2023-01-16T15:38:19;1.50;;;1.05;;
34832;SDS011;55941;50.800;4.342;2023-01-16T15:40:49;1.10;;;1.00;;
34832;SDS011;55941;50.800;4.342;2023-01-16T15:43:16;1.65;;;1.20;;
34832;SDS011;55941;50.800;4.342;2023-01-16T15:46:16;1.75;;;1.27;;
34832;SDS011;55941;50.800;4.342;2023-01-16T15:51:49;3.08;;;1.60;;
34832;SDS011;55941;50.800;4.342;2023-01-16T15:54:18;4.43;;;2.63;;
34832;SDS011;55941;50.800;4.342;2023-01-16T15:56:44;3.72;;;2.65;;
34832;SDS011;55941;50.800;4.342;2023-01-16T15:59:31;4.43;;;1.80;;
34832;SDS011;55941;50.800;4.342;2023-01-16T16:02:19;1.90;;;1.08;;
34832;SDS011;55941;50.800;4.342;2023-01-16T16:04:52;2.90;;;1.90;;
34832;SDS011;55941;50.800;4.342;2023-01-16T16:07:20;2.92;;;1.60;;
34832;SDS011;55941;50.800;4.342;2023-01-16T16:09:47;2.65;;;1.30;;
34832;SDS011;55941;50.800;4.342;2023-01-16T16:12:15;4.28;;;1.48;;
34832;SDS011;55941;50.800;4.342;2023-01-16T16:14:43;4.60;;;1.90;;
34832;SDS011;55941;50.800;4.342;2023-01-16T16:17:30;3.00;;;1.40;;
34832;SDS011;55941;50.800;4.342;2023-01-16T16:20:32;6.07;;;1.63;;
34832;SDS011;55941;50.800;4.342;2023-01-16T16:28:20;10.15;;;3.05;;
34832;SDS011;55941;50.800;4.342;2023-01-16T16:31:15;14.90;;;4.97;;
34832;SDS011;55941;50.800;4.342;2023-01-16T16:33:42;9.38;;;3.10;;
34832;SDS011;55941;50.800;4.342;2023-01-16T16:36:17;12.38;;;4.97;;
34832;SDS011;55941;50.800;4.342;2023-01-16T16:38:47;7.15;;;2.45;;
34832;SDS011;55941;50.800;4.342;2023-01-16T16:44:01;14.20;;;2.90;;
34832;SDS011;55941;50.800;4.342;2023-01-16T16:46:33;9.88;;;2.80;;
34832;SDS011;55941;50.800;4.342;2023-01-16T16:49:25;10.90;;;3.05;;
34832;SDS011;55941;50.800;4.342;2023-01-16T16:51:53;6.60;;;1.80;;
34832;SDS011;55941;50.800;4.342;2023-01-16T16:54:18;10.68;;;2.00;;
34832;SDS011;55941;50.800;4.342;2023-01-16T16:56:54;13.93;;;2.50;;
34832;SDS011;55941;50.800;4.342;2023-01-16T16:59:24;12.75;;;2.03;;
34832;SDS011;55941;50.800;4.342;2023-01-16T17:01:56;7.88;;;1.33;;
34832;SDS011;55941;50.800;4.342;2023-01-16T17:04:30;5.00;;;1.60;;
34832;SDS011;55941;50.800;4.342;2023-01-16T17:06:57;8.98;;;2.30;;
34832;SDS011;55941;50.800;4.342;2023-01-16T17:09:24;5.95;;;1.55;;
34832;SDS011;55941;50.800;4.342;2023-01-16T17:11:51;10.18;;;2.15;;
34832;SDS011;55941;50.800;4.342;2023-01-16T17:14:17;14.35;;;4.32;;
34832;SDS011;55941;50.800;4.342;2023-01-16T17:16:43;9.23;;;2.03;;
34832;SDS011;55941;50.800;4.342;2023-01-16T17:19:16;11.32;;;1.83;;
34832;SDS011;55941;50.800;4.342;2023-01-16T17:21:46;9.15;;;2.65;;
34832;SDS011;55941;50.800;4.342;2023-01-16T17:24:16;11.70;;;1.80;;
34832;SDS011;55941;50.800;4.342;2023-01-16T17:26:44;7.40;;;2.05;;
34832;SDS011;55941;50.800;4.342;2023-01-16T17:29:11;10.25;;;2.72;;
34832;SDS011;55941;50.800;4.342;2023-01-16T17:31:37;10.45;;;1.85;;